Time,TemperatureF,DewpointF,PressureIn,WindDirection,WindDirectionDegrees,WindSpeedMPH,WindSpeedGustMPH,Humidity,HourlyPrecipIn,Conditions,Clouds,dailyrainin,SoftwareType,DateUTC
2013-03-04 00:00:00,20.1,6.2,0.00,North,353,0.0,0.0,54,0.00,,---,0.00,VWS V14.00,2013-03-04 05:00:00,
2013-03-04 00:10:00,20.1,6.2,0.00,North,353,0.0,0.0,54,0.00,,---,0.00,VWS V14.00,2013-03-04 05:10:00,
2013-03-04 00:20:00,20.1,6.6,0.00,North,353,0.0,0.0,55,0.00,,---,0.00,VWS V14.00,2013-03-04 05:20:00,
2013-03-04 00:30:00,19.9,6.4,0.00,North,353,0.0,0.0,55,0.00,,---,0.00,VWS V14.00,2013-03-04 05:30:00,
2013-03-04 00:40:00,20.3,7.1,0.00,North,353,0.0,0.0,56,0.00,,---,0.00,VWS V14.00,2013-03-04 05:40:00,
2013-03-04 00:50:00,19.9,6.4,0.00,North,353,0.0,0.0,55,0.00,,---,0.00,VWS V14.00,2013-03-04 05:50:00,
2013-03-04 01:00:00,19.6,6.1,0.00,North,353,0.0,0.0,55,0.00,,---,0.00,VWS V14.00,2013-03-04 06:00:00,
2013-03-04 01:10:00,19.2,6.1,0.00,North,353,0.0,0.0,56,0.00,,---,0.00,VWS V14.00,2013-03-04 06:10:00,
2013-03-04 01:20:00,19.2,6.5,0.00,North,353,0.0,0.0,57,0.00,,---,0.00,VWS V14.00,2013-03-04 06:20:00,
2013-03-04 01:30:00,19.2,6.5,0.00,North,353,0.0,0.0,57,0.00,,---,0.00,VWS V14.00,2013-03-04 06:30:00,
2013-03-04 01:40:00,19.0,6.3,0.00,North,353,0.0,0.0,57,0.00,,---,0.00,VWS V14.00,2013-03-04 06:40:00,
2013-03-04 01:50:00,18.9,6.2,0.00,North,353,0.0,0.0,57,0.00,,---,0.00,VWS V14.00,2013-03-04 06:50:00,
2013-03-04 02:00:00,19.2,6.9,0.00,North,353,0.0,0.0,58,0.00,,---,0.00,VWS V14.00,2013-03-04 07:00:00,
2013-03-04 02:10:00,18.9,6.2,0.00,North,353,0.0,0.0,57,0.00,,---,0.00,VWS V14.00,2013-03-04 07:10:00,
2013-03-04 02:20:00,18.7,6.4,0.00,North,353,0.0,0.0,58,0.00,,---,0.00,VWS V14.00,2013-03-04 07:20:00,
2013-03-04 02:30:00,18.7,6.4,0.00,North,353,0.0,0.0,58,0.00,,---,0.00,VWS V14.00,2013-03-04 07:30:00,
2013-03-04 02:40:00,19.2,6.9,0.00,North,353,0.0,0.0,58,0.00,,---,0.00,VWS V14.00,2013-03-04 07:40:00,
2013-03-04 02:50:00,19.0,6.7,0.00,North,353,0.0,0.0,58,0.00,,---,0.00,VWS V14.00,2013-03-04 07:50:00,
2013-03-04 03:00:00,18.5,5.8,0.00,North,353,0.0,0.0,57,0.00,,---,0.00,VWS V14.00,2013-03-04 08:00:00,
2013-03-04 03:10:00,18.7,6.0,0.00,North,353,0.0,0.0,57,0.00,,---,0.00,VWS V14.00,2013-03-04 08:10:00,
2013-03-04 03:20:00,18.5,5.8,0.00,North,353,0.0,0.0,57,0.00,,---,0.00,VWS V14.00,2013-03-04 08:20:00,
2013-03-04 03:30:00,18.7,6.4,0.00,North,353,0.0,0.0,58,0.00,,---,0.00,VWS V14.00,2013-03-04 08:30:00,
2013-03-04 03:40:00,18.7,6.4,0.00,North,353,0.0,0.0,58,0.00,,---,0.00,VWS V14.00,2013-03-04 08:40:00,
2013-03-04 03:50:00,18.7,6.4,0.00,North,353,0.0,0.0,58,0.00,,---,0.00,VWS V14.00,2013-03-04 08:50:00,
2013-03-04 04:00:00,18.7,6.4,0.00,North,353,0.0,0.0,58,0.00,,---,0.00,VWS V14.00,2013-03-04 09:00:00,
2013-03-04 04:10:00,18.7,6.4,0.00,North,353,0.0,0.0,58,0.00,,---,0.00,VWS V14.00,2013-03-04 09:10:00,
2013-03-04 04:20:00,18.7,6.4,0.00,North,353,0.0,0.0,58,0.00,,---,0.00,VWS V14.00,2013-03-04 09:20:00,
2013-03-04 04:30:00,18.7,6.4,0.00,North,353,0.0,0.0,58,0.00,,---,0.00,VWS V14.00,2013-03-04 09:30:00,
2013-03-04 04:40:00,19.0,6.7,0.00,North,353,0.0,0.0,58,0.00,,---,0.00,VWS V14.00,2013-03-04 09:40:00,
2013-03-04 04:50:00,19.0,6.7,0.00,North,353,0.0,0.0,58,0.00,,---,0.00,VWS V14.00,2013-03-04 09:50:00,
2013-03-04 05:00:00,19.0,6.7,0.00,North,353,0.0,0.0,58,0.00,,---,0.00,VWS V14.00,2013-03-04 10:00:00,
2013-03-04 05:10:00,18.5,5.8,0.00,North,353,0.0,0.0,57,0.00,,---,0.00,VWS V14.00,2013-03-04 10:10:00,
2013-03-04 05:20:00,18.5,6.2,0.00,North,353,0.0,0.0,58,0.00,,---,0.00,VWS V14.00,2013-03-04 10:20:00,
2013-03-04 05:30:00,18.5,6.2,0.00,North,353,0.0,0.0,58,0.00,,---,0.00,VWS V14.00,2013-03-04 10:30:00,
2013-03-04 05:40:00,18.9,6.5,0.00,North,353,0.0,0.0,58,0.00,,---,0.00,VWS V14.00,2013-03-04 10:40:00,
2013-03-04 05:50:00,18.7,6.4,0.00,North,353,0.0,0.0,58,0.00,,---,0.00,VWS V14.00,2013-03-04 10:50:00,
2013-03-04 06:00:00,19.2,6.9,0.00,North,353,0.0,0.0,58,0.00,,---,0.00,VWS V14.00,2013-03-04 11:00:00,
2013-03-04 06:10:00,19.0,6.7,0.00,North,353,0.0,0.0,58,0.00,,---,0.00,VWS V14.00,2013-03-04 11:10:00,
2013-03-04 06:20:00,19.2,6.9,0.00,North,353,0.0,0.0,58,0.00,,---,0.00,VWS V14.00,2013-03-04 11:20:00,
2013-03-04 06:30:00,19.6,7.2,0.00,North,353,0.0,0.0,58,0.00,,---,0.00,VWS V14.00,2013-03-04 11:30:00,
2013-03-04 06:40:00,19.9,7.6,0.00,North,353,0.0,0.0,58,0.00,,---,0.00,VWS V14.00,2013-03-04 11:40:00,
2013-03-04 06:50:00,20.5,8.4,0.00,North,353,0.0,0.0,59,0.00,,---,0.00,VWS V14.00,2013-03-04 11:50:00,
2013-03-04 07:00:00,20.5,8.1,0.00,North,353,0.0,0.0,58,0.00,,---,0.00,VWS V14.00,2013-03-04 12:00:00,
2013-03-04 07:10:00,20.7,8.2,0.00,North,353,0.0,0.0,58,0.00,,---,0.00,VWS V14.00,2013-03-04 12:10:00,
2013-03-04 07:20:00,20.5,8.1,0.00,North,353,0.0,0.0,58,0.00,,---,0.00,VWS V14.00,2013-03-04 12:20:00,
2013-03-04 07:30:00,20.5,8.1,0.00,North,353,0.0,0.0,58,0.00,,---,0.00,VWS V14.00,2013-03-04 12:30:00,
2013-03-04 07:40:00,20.7,8.6,0.00,North,353,0.0,0.0,59,0.00,,---,0.00,VWS V14.00,2013-03-04 12:40:00,
2013-03-04 07:50:00,21.0,8.9,0.00,North,353,0.0,0.0,59,0.00,,---,0.00,VWS V14.00,2013-03-04 12:50:00,
2013-03-04 08:00:00,21.6,9.5,0.00,North,353,0.0,0.0,59,0.00,,---,0.00,VWS V14.00,2013-03-04 13:00:00,
2013-03-04 08:10:00,22.3,10.5,0.00,NE,37,0.0,0.0,60,0.00,,---,0.00,VWS V14.00,2013-03-04 13:10:00,
2013-03-04 08:20:00,23.4,11.9,0.00,NE,37,0.0,0.0,61,0.00,,---,0.00,VWS V14.00,2013-03-04 13:20:00,
2013-03-04 08:30:00,24.6,13.5,0.00,NE,37,0.0,0.0,62,0.00,,---,0.00,VWS V14.00,2013-03-04 13:30:00,
2013-03-04 08:40:00,26.1,15.2,0.00,ESE,111,0.0,0.0,63,0.00,,---,0.00,VWS V14.00,2013-03-04 13:40:00,
2013-03-04 08:50:00,27.5,16.9,0.00,SSW,193,0.0,0.0,64,0.00,,---,0.00,VWS V14.00,2013-03-04 13:50:00,
2013-03-04 09:00:00,28.4,18.1,0.00,South,185,0.0,0.0,65,0.00,,---,0.00,VWS V14.00,2013-03-04 14:00:00,
2013-03-04 09:10:00,29.5,19.2,0.00,SE,145,0.0,0.0,65,0.00,,---,0.00,VWS V14.00,2013-03-04 14:10:00,
2013-03-04 09:20:00,30.4,19.3,0.00,South,170,0.0,0.0,63,0.00,,---,0.00,VWS V14.00,2013-03-04 14:20:00,
2013-03-04 09:30:00,31.1,15.5,0.00,South,170,0.0,0.0,52,0.00,,---,0.00,VWS V14.00,2013-03-04 14:30:00,
2013-03-04 09:40:00,31.5,10.5,0.00,South,170,0.0,0.0,41,0.00,,---,0.00,VWS V14.00,2013-03-04 14:40:00,
2013-03-04 09:50:00,32.4,8.4,0.00,South,185,0.0,0.0,36,0.00,,---,0.00,VWS V14.00,2013-03-04 14:50:00,
2013-03-04 10:00:00,32.7,7.5,0.00,SSE,167,0.0,0.0,34,0.00,,---,0.00,VWS V14.00,2013-03-04 15:00:00,
2013-03-04 10:10:00,32.7,6.8,0.00,South,169,0.0,0.0,33,0.00,,---,0.00,VWS V14.00,2013-03-04 15:10:00,
2013-03-04 10:20:00,33.3,7.3,0.00,ESE,109,0.0,0.0,33,0.00,,---,0.00,VWS V14.00,2013-03-04 15:20:00,
2013-03-04 10:30:00,34.3,7.6,0.00,SE,146,0.0,0.0,32,0.00,,---,0.00,VWS V14.00,2013-03-04 15:30:00,
2013-03-04 10:40:00,35.1,7.5,0.00,ESE,123,0.0,3.1,31,0.00,,---,0.00,VWS V14.00,2013-03-04 15:40:00,
2013-03-04 10:50:00,36.0,7.6,0.00,SE,134,0.0,0.0,30,0.00,,---,0.00,VWS V14.00,2013-03-04 15:50:00,
2013-03-04 11:00:00,36.9,8.3,0.00,SSE,151,0.0,8.1,30,0.00,,---,0.00,VWS V14.00,2013-03-04 16:00:00,
2013-03-04 11:10:00,37.6,9.0,0.00,ESE,120,0.0,4.9,30,0.00,,---,0.00,VWS V14.00,2013-03-04 16:10:00,
2013-03-04 11:20:00,38.1,9.4,0.00,SSE,157,0.0,7.6,30,0.00,,---,0.00,VWS V14.00,2013-03-04 16:20:00,
2013-03-04 11:30:00,39.4,9.8,0.00,SSE,156,0.0,2.7,29,0.00,,---,0.00,VWS V14.00,2013-03-04 16:30:00,
2013-03-04 11:40:00,39.6,9.9,0.00,South,185,0.0,0.0,29,0.00,,---,0.00,VWS V14.00,2013-03-04 16:40:00,
2013-03-04 11:50:00,40.5,10.7,0.00,SSE,160,0.0,6.3,29,0.00,,---,0.00,VWS V14.00,2013-03-04 16:50:00,
2013-03-04 12:00:00,41.2,11.4,0.00,SSW,212,0.0,0.0,29,0.00,,---,0.00,VWS V14.00,2013-03-04 17:00:00,
2013-03-04 12:10:00,41.7,11.8,0.00,SSE,159,0.0,2.2,29,0.00,,---,0.00,VWS V14.00,2013-03-04 17:10:00,
2013-03-04 12:20:00,41.7,11.8,0.00,South,170,0.0,2.2,29,0.00,,---,0.00,VWS V14.00,2013-03-04 17:20:00,
2013-03-04 12:30:00,41.2,11.4,0.00,SE,138,0.0,3.6,29,0.00,,---,0.00,VWS V14.00,2013-03-04 17:30:00,
2013-03-04 12:40:00,42.8,12.0,0.00,SSE,163,0.0,2.2,28,0.00,,---,0.00,VWS V14.00,2013-03-04 17:40:00,
2013-03-04 12:50:00,44.2,13.2,0.00,SSE,165,0.0,4.0,28,0.00,,---,0.00,VWS V14.00,2013-03-04 17:50:00,
2013-03-04 13:00:00,44.8,13.7,0.00,SSE,161,0.0,7.6,28,0.00,,---,0.00,VWS V14.00,2013-03-04 18:00:00,
2013-03-04 13:10:00,45.0,13.8,0.00,South,170,0.0,7.6,28,0.00,,---,0.00,VWS V14.00,2013-03-04 18:10:00,
2013-03-04 13:20:00,44.4,13.4,0.00,SE,126,0.0,4.9,28,0.00,,---,0.00,VWS V14.00,2013-03-04 18:20:00,
2013-03-04 13:30:00,44.2,13.2,0.00,ESE,113,0.0,0.0,28,0.00,,---,0.00,VWS V14.00,2013-03-04 18:30:00,
2013-03-04 13:40:00,43.7,12.8,0.00,SSE,166,0.0,2.2,28,0.00,,---,0.00,VWS V14.00,2013-03-04 18:40:00,
2013-03-04 13:50:00,42.3,12.3,0.00,East,89,0.0,2.2,29,0.00,,---,0.00,VWS V14.00,2013-03-04 18:50:00,
2013-03-04 14:00:00,41.5,11.7,0.00,SSE,148,0.0,3.1,29,0.00,,---,0.00,VWS V14.00,2013-03-04 19:00:00,
2013-03-04 14:10:00,41.4,11.5,0.00,SE,134,0.0,2.2,29,0.00,,---,0.00,VWS V14.00,2013-03-04 19:10:00,
2013-03-04 14:20:00,40.6,10.9,0.00,SSE,164,0.0,5.8,29,0.00,,---,0.00,VWS V14.00,2013-03-04 19:20:00,
2013-03-04 14:30:00,41.2,11.4,0.00,ESE,102,0.0,3.1,29,0.00,,---,0.00,VWS V14.00,2013-03-04 19:30:00,
2013-03-04 14:40:00,42.4,12.4,0.00,South,185,0.0,4.0,29,0.00,,---,0.00,VWS V14.00,2013-03-04 19:40:00,
2013-03-04 14:50:00,42.4,12.4,0.00,SE,146,0.0,6.3,29,0.00,,---,0.00,VWS V14.00,2013-03-04 19:50:00,
2013-03-04 15:00:00,41.0,11.2,0.00,SE,140,0.0,0.0,29,0.00,,---,0.00,VWS V14.00,2013-03-04 20:00:00,
2013-03-04 15:10:00,41.0,11.2,0.00,SSE,153,0.0,0.0,29,0.00,,---,0.00,VWS V14.00,2013-03-04 20:10:00,
2013-03-04 15:20:00,41.4,11.5,0.00,ESE,113,0.0,2.2,29,0.00,,---,0.00,VWS V14.00,2013-03-04 20:20:00,
2013-03-04 15:30:00,41.5,11.7,0.00,SSE,149,0.0,2.2,29,0.00,,---,0.00,VWS V14.00,2013-03-04 20:30:00,
2013-03-04 15:40:00,41.2,11.4,0.00,ESE,109,0.0,2.2,29,0.00,,---,0.00,VWS V14.00,2013-03-04 20:40:00,
2013-03-04 15:50:00,41.2,11.4,0.00,SE,126,0.0,0.0,29,0.00,,---,0.00,VWS V14.00,2013-03-04 20:50:00,
2013-03-04 16:00:00,41.0,11.2,0.00,ESE,114,0.0,2.2,29,0.00,,---,0.00,VWS V14.00,2013-03-04 21:00:00,
2013-03-04 16:10:00,40.6,10.9,0.00,South,171,0.0,0.0,29,0.00,,---,0.00,VWS V14.00,2013-03-04 21:10:00,
2013-03-04 16:20:00,41.2,11.4,0.00,SE,125,0.0,2.7,29,0.00,,---,0.00,VWS V14.00,2013-03-04 21:20:00,
2013-03-04 16:30:00,41.2,11.4,0.00,SSE,149,0.0,2.2,29,0.00,,---,0.00,VWS V14.00,2013-03-04 21:30:00,
2013-03-04 16:40:00,40.8,11.0,0.00,SE,130,0.0,2.2,29,0.00,,---,0.00,VWS V14.00,2013-03-04 21:40:00,
2013-03-04 16:50:00,40.6,10.9,0.00,SSE,148,0.0,2.2,29,0.00,,---,0.00,VWS V14.00,2013-03-04 21:50:00,
2013-03-04 17:00:00,40.3,10.6,0.00,ESE,113,0.0,0.0,29,0.00,,---,0.00,VWS V14.00,2013-03-04 22:00:00,
2013-03-04 17:10:00,39.9,10.2,0.00,ESE,118,0.0,0.0,29,0.00,,---,0.00,VWS V14.00,2013-03-04 22:10:00,
2013-03-04 17:20:00,39.4,9.8,0.00,SE,139,0.0,0.0,29,0.00,,---,0.00,VWS V14.00,2013-03-04 22:20:00,
2013-03-04 17:30:00,39.0,10.2,0.00,ESE,117,0.0,2.2,30,0.00,,---,0.00,VWS V14.00,2013-03-04 22:30:00,
2013-03-04 17:40:00,38.7,9.9,0.00,ESE,109,0.0,0.0,30,0.00,,---,0.00,VWS V14.00,2013-03-04 22:40:00,
2013-03-04 17:50:00,38.5,9.8,0.00,ESE,103,0.0,0.0,30,0.00,,---,0.00,VWS V14.00,2013-03-04 22:50:00,
2013-03-04 18:00:00,38.3,9.6,0.00,ESE,111,0.0,0.0,30,0.00,,---,0.00,VWS V14.00,2013-03-04 23:00:00,
2013-03-04 18:10:00,38.1,9.4,0.00,ESE,119,0.0,0.0,30,0.00,,---,0.00,VWS V14.00,2013-03-04 23:10:00,
2013-03-04 18:20:00,37.8,9.1,0.00,ESE,108,0.0,2.2,30,0.00,,---,0.00,VWS V14.00,2013-03-04 23:20:00,
2013-03-04 18:30:00,37.6,9.0,0.00,ESE,118,0.0,0.0,30,0.00,,---,0.00,VWS V14.00,2013-03-04 23:30:00,
2013-03-04 18:40:00,37.2,9.4,0.00,SE,140,0.0,2.2,31,0.00,,---,0.00,VWS V14.00,2013-03-04 23:40:00,
2013-03-04 18:50:00,37.0,9.2,0.00,ESE,114,0.0,0.0,31,0.00,,---,0.00,VWS V14.00,2013-03-04 23:50:00,
2013-03-04 19:00:00,37.0,9.2,0.00,SSE,162,0.0,0.0,31,0.00,,---,0.00,VWS V14.00,2013-03-05 00:00:00,
2013-03-04 19:10:00,37.0,9.2,0.00,SE,129,0.0,2.7,31,0.00,,---,0.00,VWS V14.00,2013-03-05 00:10:00,
2013-03-04 19:20:00,37.0,9.2,0.00,SE,136,0.0,2.2,31,0.00,,---,0.00,VWS V14.00,2013-03-05 00:20:00,
2013-03-04 19:30:00,37.0,9.2,0.00,SE,136,0.0,0.0,31,0.00,,---,0.00,VWS V14.00,2013-03-05 00:30:00,
2013-03-04 19:40:00,37.0,9.2,0.00,ESE,106,0.0,0.0,31,0.00,,---,0.00,VWS V14.00,2013-03-05 00:40:00,
2013-03-04 19:50:00,37.0,9.2,0.00,ESE,119,0.0,0.0,31,0.00,,---,0.00,VWS V14.00,2013-03-05 00:50:00,
2013-03-04 20:00:00,36.9,9.1,0.00,SE,127,2.7,2.7,31,0.00,,---,0.00,VWS V14.00,2013-03-05 01:00:00,
2013-03-04 20:10:00,36.9,9.8,0.00,East,100,0.0,2.7,32,0.00,,---,0.00,VWS V14.00,2013-03-05 01:10:00,
2013-03-04 20:20:00,36.9,9.8,0.00,ESE,112,0.0,0.0,32,0.00,,---,0.00,VWS V14.00,2013-03-05 01:20:00,
2013-03-04 20:30:00,36.7,9.6,0.00,ESE,120,0.0,0.0,32,0.00,,---,0.00,VWS V14.00,2013-03-05 01:30:00,
2013-03-04 20:40:00,36.7,9.6,0.00,ESE,120,0.0,0.0,32,0.00,,---,0.00,VWS V14.00,2013-03-05 01:40:00,
2013-03-04 20:50:00,36.7,9.6,0.00,East,99,0.0,0.0,32,0.00,,---,0.00,VWS V14.00,2013-03-05 01:50:00,
2013-03-04 21:00:00,36.7,9.6,0.00,East,99,0.0,2.2,32,0.00,,---,0.00,VWS V14.00,2013-03-05 02:00:00,
2013-03-04 21:10:00,36.7,9.6,0.00,ESE,108,0.0,0.0,32,0.00,,---,0.00,VWS V14.00,2013-03-05 02:10:00,
2013-03-04 21:20:00,36.7,9.6,0.00,SSE,147,0.0,0.0,32,0.00,,---,0.00,VWS V14.00,2013-03-05 02:20:00,
2013-03-04 21:30:00,36.7,9.6,0.00,SE,133,0.0,0.0,32,0.00,,---,0.00,VWS V14.00,2013-03-05 02:30:00,
2013-03-04 21:40:00,36.7,9.6,0.00,SE,135,0.0,0.0,32,0.00,,---,0.00,VWS V14.00,2013-03-05 02:40:00,
2013-03-04 21:50:00,36.9,9.8,0.00,ESE,121,0.0,0.0,32,0.00,,---,0.00,VWS V14.00,2013-03-05 02:50:00,
2013-03-04 22:00:00,36.9,9.8,0.00,ESE,115,0.0,2.2,32,0.00,,---,0.00,VWS V14.00,2013-03-05 03:00:00,
2013-03-04 22:10:00,36.7,10.3,0.00,SE,126,0.0,0.0,33,0.00,,---,0.00,VWS V14.00,2013-03-05 03:10:00,
2013-03-04 22:20:00,36.7,10.3,0.00,SE,127,0.0,0.0,33,0.00,,---,0.00,VWS V14.00,2013-03-05 03:20:00,
2013-03-04 22:30:00,36.7,9.6,0.00,East,84,0.0,0.0,32,0.00,,---,0.00,VWS V14.00,2013-03-05 03:30:00,
2013-03-04 22:40:00,36.9,9.8,0.00,East,98,0.0,0.0,32,0.00,,---,0.00,VWS V14.00,2013-03-05 03:40:00,
2013-03-04 22:50:00,36.9,9.8,0.00,East,80,0.0,2.7,32,0.00,,---,0.00,VWS V14.00,2013-03-05 03:50:00,
2013-03-04 23:00:00,36.7,10.3,0.00,East,93,0.0,2.7,33,0.00,,---,0.00,VWS V14.00,2013-03-05 04:00:00,
2013-03-04 23:10:00,36.7,11.0,0.00,ESE,110,0.0,2.2,34,0.00,,---,0.00,VWS V14.00,2013-03-05 04:10:00,
2013-03-04 23:20:00,36.3,10.6,0.00,East,81,0.0,2.7,34,0.00,,---,0.00,VWS V14.00,2013-03-05 04:20:00,
2013-03-04 23:30:00,36.3,10.6,0.00,East,90,2.2,2.7,34,0.00,,---,0.00,VWS V14.00,2013-03-05 04:30:00,
2013-03-04 23:40:00,36.3,11.9,0.00,ESE,112,0.0,2.7,36,0.00,,---,0.00,VWS V14.00,2013-03-05 04:40:00,
2013-03-04 23:50:00,36.3,11.9,0.00,East,91,0.0,2.7,36,0.00,,---,0.00,VWS V14.00,2013-03-05 04:50:00,